createdAt,value
2019-03-16T00:01:56.606Z,2.15
2019-03-16T00:04:15.748Z,2.07
2019-03-16T00:06:45.687Z,1.98
2019-03-16T00:09:15.349Z,1.23
2019-03-16T00:11:43.591Z,2.13
2019-03-16T00:14:13.776Z,2.65
2019-03-16T00:16:41.988Z,1.65
2019-03-16T00:19:11.192Z,1.60
2019-03-16T00:21:39.367Z,2.07
2019-03-16T00:24:09.061Z,2.13
2019-03-16T00:26:37.111Z,1.73
2019-03-16T00:29:06.817Z,4.60
2019-03-16T00:31:35.725Z,2.50
2019-03-16T00:34:05.284Z,1.50
2019-03-16T00:36:34.054Z,1.13
2019-03-16T00:39:02.113Z,3.30
2019-03-16T00:41:30.094Z,1.55
2019-03-16T00:43:58.406Z,1.87
2019-03-16T00:46:26.727Z,1.40
2019-03-16T00:48:54.751Z,1.80
2019-03-16T00:51:23.051Z,1.47
2019-03-16T00:53:52.096Z,1.42
2019-03-16T00:56:20.375Z,1.63
2019-03-16T00:58:49.676Z,3.13
2019-03-16T01:01:18.266Z,1.50
2019-03-16T01:03:47.565Z,1.20
2019-03-16T01:06:15.564Z,1.60
2019-03-16T01:08:43.581Z,1.40
2019-03-16T01:11:11.477Z,2.07
2019-03-16T01:13:39.260Z,1.20
2019-03-16T01:16:07.783Z,1.20
2019-03-16T01:18:36.564Z,1.40
2019-03-16T01:21:04.537Z,1.33
2019-03-16T01:23:32.926Z,1.77
2019-03-16T01:26:01.549Z,1.80
2019-03-16T01:28:29.486Z,1.35
2019-03-16T01:30:57.305Z,1.40
2019-03-16T01:33:25.823Z,1.40
2019-03-16T01:35:53.877Z,3.22
2019-03-16T01:38:22.445Z,1.65
2019-03-16T01:40:50.719Z,1.55
2019-03-16T01:43:18.861Z,1.77
2019-03-16T01:45:47.502Z,2.12
2019-03-16T01:48:15.552Z,1.20
2019-03-16T01:50:43.773Z,1.57
2019-03-16T01:53:12.691Z,1.20
2019-03-16T01:55:41.019Z,1.30
2019-03-16T01:58:09.547Z,1.67
2019-03-16T02:00:37.408Z,1.92
2019-03-16T02:03:05.916Z,1.30
2019-03-16T02:05:34.401Z,1.17
2019-03-16T02:08:02.233Z,1.57
2019-03-16T02:10:30.437Z,1.03
2019-03-16T02:12:58.355Z,1.27
2019-03-16T02:15:26.303Z,2.77
2019-03-16T02:17:54.522Z,1.10
2019-03-16T02:20:22.763Z,1.20
2019-03-16T02:22:50.543Z,1.20
2019-03-16T02:25:20.035Z,1.57
2019-03-16T02:27:48.418Z,1.00
2019-03-16T02:33:11.790Z,1.00
2019-03-16T02:35:25.267Z,1.20
2019-03-16T02:37:52.516Z,1.80
2019-03-16T02:40:19.902Z,0.80
2019-03-16T02:42:47.019Z,1.02
2019-03-16T02:45:14.377Z,1.20
2019-03-16T02:47:41.779Z,1.40
2019-03-16T02:50:08.856Z,1.30
2019-03-16T02:52:36.746Z,1.07
2019-03-16T02:55:04.421Z,0.90
2019-03-16T02:57:31.724Z,1.25
2019-03-16T02:59:59.138Z,1.00
2019-03-16T03:02:26.474Z,1.43
2019-03-16T03:04:54.124Z,0.95
2019-03-16T03:07:21.267Z,0.90
2019-03-16T03:09:48.955Z,1.13
2019-03-16T03:12:15.991Z,1.10
2019-03-16T03:14:43.064Z,0.83
2019-03-16T03:17:10.099Z,1.15
2019-03-16T03:19:37.678Z,0.90
2019-03-16T03:22:05.396Z,1.00
2019-03-16T03:24:33.120Z,1.40
2019-03-16T03:27:00.926Z,1.00
2019-03-16T03:29:28.811Z,0.70
2019-03-16T03:31:56.949Z,0.90
2019-03-16T03:34:24.562Z,1.10
2019-03-16T03:36:52.325Z,2.97
2019-03-16T03:39:20.091Z,1.27
2019-03-16T03:41:48.013Z,1.00
2019-03-16T03:44:16.037Z,0.90
2019-03-16T03:46:44.000Z,0.97
2019-03-16T03:49:11.738Z,1.20
2019-03-16T03:51:39.482Z,1.12
2019-03-16T03:54:07.406Z,1.20
2019-03-16T03:56:35.134Z,1.05
2019-03-16T03:59:02.961Z,0.90
2019-03-16T04:01:30.771Z,1.15
2019-03-16T04:04:13.995Z,1.00
2019-03-16T04:06:28.591Z,0.80
2019-03-16T04:08:56.707Z,1.02
2019-03-16T04:11:24.432Z,0.80
2019-03-16T04:13:53.404Z,0.90
2019-03-16T04:16:21.427Z,0.90
2019-03-16T04:18:51.666Z,1.00
2019-03-16T04:21:19.323Z,1.33
2019-03-16T04:23:47.427Z,1.07
2019-03-16T04:26:15.551Z,0.83
2019-03-16T04:28:43.150Z,1.47
2019-03-16T04:31:11.357Z,0.90
2019-03-16T04:33:39.657Z,1.10
2019-03-16T04:36:07.768Z,0.93
2019-03-16T04:38:35.724Z,1.10
2019-03-16T04:41:03.760Z,1.00
2019-03-16T04:43:31.769Z,1.17
2019-03-16T04:45:59.872Z,1.52
2019-03-16T04:48:28.051Z,1.45
2019-03-16T04:50:56.325Z,1.45
2019-03-16T04:53:26.470Z,1.00
2019-03-16T04:55:54.934Z,0.85
2019-03-16T04:58:22.694Z,1.00
2019-03-16T05:00:50.399Z,0.93
2019-03-16T05:03:19.047Z,1.02
2019-03-16T05:05:47.115Z,1.10
2019-03-16T05:08:14.761Z,0.90
2019-03-16T05:10:42.842Z,0.90
2019-03-16T05:13:10.439Z,1.00
2019-03-16T05:15:38.231Z,0.80
2019-03-16T05:18:05.947Z,0.80
2019-03-16T05:20:34.312Z,0.90
2019-03-16T05:23:02.067Z,0.80
2019-03-16T05:25:30.157Z,0.87
2019-03-16T05:27:58.725Z,1.00
2019-03-16T05:30:26.800Z,1.40
2019-03-16T05:32:55.009Z,2.75
2019-03-16T05:35:23.132Z,1.67
2019-03-16T05:37:50.899Z,2.77
2019-03-16T05:40:18.665Z,2.40
2019-03-16T05:42:47.304Z,1.97
2019-03-16T05:45:15.066Z,1.35
2019-03-16T05:47:45.117Z,1.77
2019-03-16T05:50:12.928Z,1.20
2019-03-16T05:52:40.769Z,1.27
2019-03-16T05:55:08.734Z,2.20
2019-03-16T05:57:36.654Z,1.70
2019-03-16T06:00:08.408Z,1.10
2019-03-16T06:02:35.475Z,1.63
2019-03-16T06:05:10.373Z,1.40
2019-03-16T06:07:33.940Z,0.90
2019-03-16T06:10:01.632Z,1.80
2019-03-16T06:12:31.408Z,1.00
2019-03-16T06:14:59.298Z,1.10
2019-03-16T06:17:26.875Z,0.90
2019-03-16T06:19:55.225Z,1.07
2019-03-16T06:22:23.360Z,1.30
2019-03-16T06:24:51.665Z,0.63
2019-03-16T06:27:20.285Z,1.20
2019-03-16T06:29:48.187Z,0.80
2019-03-16T06:32:15.948Z,1.17
2019-03-16T06:34:43.662Z,0.90
2019-03-16T06:37:11.793Z,1.30
2019-03-16T06:39:39.685Z,0.90
2019-03-16T06:42:07.481Z,2.17
2019-03-16T06:44:35.627Z,1.80
2019-03-16T06:47:03.361Z,1.10
2019-03-16T06:49:31.181Z,1.00
2019-03-16T06:51:59.442Z,1.55
2019-03-16T06:54:28.107Z,3.10
2019-03-16T06:56:55.930Z,1.40
2019-03-16T06:59:23.935Z,1.10
2019-03-16T07:01:54.162Z,2.20
2019-03-16T07:04:22.383Z,1.10
2019-03-16T07:06:51.374Z,1.40
2019-03-16T07:09:19.308Z,2.47
2019-03-16T07:11:51.120Z,5.00
2019-03-16T07:14:18.976Z,2.77
2019-03-16T07:16:46.636Z,4.35
2019-03-16T07:19:14.473Z,2.45
2019-03-16T07:21:42.423Z,2.57
2019-03-16T07:24:13.740Z,3.85
2019-03-16T07:26:41.836Z,6.77
2019-03-16T07:29:09.978Z,3.23
2019-03-16T07:31:37.797Z,2.27
2019-03-16T07:34:06.439Z,1.35
2019-03-16T07:36:36.052Z,3.55
2019-03-16T07:39:06.032Z,1.10
2019-03-16T07:41:34.150Z,3.00
2019-03-16T07:44:02.095Z,3.63
2019-03-16T07:46:30.773Z,3.33
2019-03-16T07:48:58.618Z,1.25
2019-03-16T07:51:26.699Z,1.10
2019-03-16T07:53:55.214Z,4.03
2019-03-16T07:56:22.993Z,1.75
2019-03-16T07:58:50.872Z,4.07
2019-03-16T08:01:19.104Z,2.55
2019-03-16T08:03:47.930Z,1.57
2019-03-16T08:06:16.149Z,1.65
2019-03-16T08:08:46.154Z,3.60
2019-03-16T08:11:13.946Z,1.85
2019-03-16T08:13:41.563Z,2.03
2019-03-16T08:16:09.681Z,5.13
2019-03-16T08:18:37.672Z,1.27
2019-03-16T08:21:05.926Z,4.75
2019-03-16T08:23:34.033Z,2.42
2019-03-16T08:26:01.932Z,1.23
2019-03-16T08:28:29.553Z,3.10
2019-03-16T08:30:57.222Z,3.70
2019-03-16T08:33:25.397Z,1.27
2019-03-16T08:35:53.485Z,1.60
2019-03-16T08:38:21.963Z,1.15
2019-03-16T08:40:50.448Z,1.10
2019-03-16T08:43:18.427Z,1.70
2019-03-16T08:45:46.430Z,2.02
2019-03-16T08:48:22.629Z,4.63
2019-03-16T08:50:44.659Z,1.67
2019-03-16T08:53:12.926Z,1.53
2019-03-16T08:55:40.791Z,0.90
2019-03-16T08:58:09.436Z,1.30
2019-03-16T09:00:37.116Z,1.00
2019-03-16T09:03:04.836Z,1.67
2019-03-16T09:05:33.506Z,4.65
2019-03-16T09:08:02.308Z,2.00
2019-03-16T09:10:30.284Z,1.13
2019-03-16T09:12:58.308Z,1.40
2019-03-16T09:15:26.503Z,1.20
2019-03-16T09:17:54.496Z,0.95
2019-03-16T09:20:22.525Z,4.00
2019-03-16T09:22:50.336Z,1.17
2019-03-16T09:25:18.069Z,1.00
2019-03-16T09:27:46.838Z,1.30
2019-03-16T09:30:14.674Z,2.13
2019-03-16T09:32:42.570Z,1.30
2019-03-16T09:35:10.355Z,1.45
2019-03-16T09:37:38.173Z,1.87
2019-03-16T09:40:06.466Z,2.15
2019-03-16T09:42:34.490Z,1.80
2019-03-16T09:45:02.184Z,2.00
2019-03-16T09:47:30.067Z,1.90
2019-03-16T09:49:58.247Z,2.47
2019-03-16T09:52:26.428Z,1.70
2019-03-16T09:54:55.874Z,1.52
2019-03-16T09:57:27.041Z,1.60
2019-03-16T09:59:55.169Z,4.73
2019-03-16T10:02:23.411Z,1.90
2019-03-16T10:04:51.397Z,4.97
2019-03-16T10:07:19.133Z,3.70
2019-03-16T10:09:47.401Z,3.07
2019-03-16T10:12:16.088Z,0.90
2019-03-16T10:14:46.846Z,1.40
2019-03-16T10:17:14.692Z,2.10
2019-03-16T10:19:42.996Z,2.10
2019-03-16T10:22:11.562Z,3.60
2019-03-16T10:24:39.587Z,5.07
2019-03-16T10:27:07.418Z,2.73
2019-03-16T10:29:35.443Z,2.03
2019-03-16T10:32:03.135Z,3.65
2019-03-16T10:34:30.881Z,3.55
2019-03-16T10:36:59.883Z,1.25
2019-03-16T10:39:29.934Z,2.95
2019-03-16T10:41:57.811Z,2.77
2019-03-16T10:44:25.595Z,2.77
2019-03-16T10:46:53.455Z,1.60
2019-03-16T10:50:59.219Z,1.35
2019-03-16T10:53:27.903Z,4.70
2019-03-16T10:55:55.969Z,1.67
2019-03-16T10:58:24.320Z,3.00
2019-03-16T11:00:52.088Z,6.00
2019-03-16T11:03:20.117Z,2.80
2019-03-16T11:05:48.250Z,6.40
2019-03-16T11:08:16.888Z,5.00
2019-03-16T11:10:45.935Z,6.90
2019-03-16T11:13:13.689Z,2.08
2019-03-16T11:15:42.013Z,1.97
2019-03-16T11:18:10.102Z,3.40
2019-03-16T11:20:38.465Z,2.50
2019-03-16T11:23:06.751Z,4.03
2019-03-16T11:25:34.690Z,10.97
2019-03-16T11:28:02.671Z,18.90
2019-03-16T11:30:30.554Z,7.23
2019-03-16T11:32:59.136Z,4.97
2019-03-16T11:35:27.397Z,1.73
2019-03-16T11:37:55.151Z,2.60
2019-03-16T11:40:23.686Z,3.23
2019-03-16T11:42:51.727Z,2.40
2019-03-16T11:45:20.115Z,4.62
2019-03-16T11:47:48.755Z,2.97
2019-03-16T11:50:17.443Z,6.33
2019-03-16T11:52:46.185Z,3.12
2019-03-16T11:55:14.318Z,4.57
2019-03-16T11:57:42.601Z,3.35
2019-03-16T12:00:10.700Z,3.10
2019-03-16T12:02:38.866Z,6.13
2019-03-16T12:05:08.813Z,5.70
2019-03-16T12:07:36.562Z,6.45
2019-03-16T12:10:05.342Z,6.97
2019-03-16T12:12:33.723Z,5.85
2019-03-16T12:15:01.631Z,12.58
2019-03-16T12:17:30.970Z,16.77
2019-03-16T12:19:59.161Z,6.28
2019-03-16T12:22:27.690Z,10.68
2019-03-16T12:24:55.431Z,17.40
2019-03-16T12:27:23.954Z,11.07
2019-03-16T12:29:51.803Z,11.40
2019-03-16T12:32:20.643Z,9.30
2019-03-16T12:34:48.846Z,6.27
2019-03-16T12:37:16.961Z,6.90
2019-03-16T12:39:44.806Z,7.13
2019-03-16T12:42:23.347Z,10.05
2019-03-16T12:44:52.445Z,13.00
2019-03-16T12:47:20.393Z,27.63
2019-03-16T12:49:49.096Z,17.10
2019-03-16T12:52:19.689Z,49.50
2019-03-16T12:54:48.222Z,34.30
2019-03-16T12:57:16.738Z,42.00
2019-03-16T12:59:47.253Z,22.67
2019-03-16T13:02:15.865Z,32.43
2019-03-16T13:04:43.833Z,29.90
2019-03-16T13:07:11.574Z,25.35
2019-03-16T13:09:42.292Z,27.80
2019-03-16T13:12:11.255Z,24.80
2019-03-16T13:14:40.045Z,25.08
2019-03-16T13:17:08.386Z,22.57
2019-03-16T13:19:36.828Z,21.97
2019-03-16T13:22:04.835Z,16.80
2019-03-16T13:24:32.650Z,16.93
2019-03-16T13:27:01.016Z,12.90
2019-03-16T13:29:29.472Z,15.10
2019-03-16T13:31:57.631Z,15.10
2019-03-16T13:34:26.107Z,15.60
2019-03-16T13:36:53.856Z,17.32
2019-03-16T13:39:22.956Z,14.10
2019-03-16T13:41:51.344Z,17.30
2019-03-16T13:44:19.524Z,15.20
2019-03-16T13:46:47.761Z,14.15
2019-03-16T13:49:15.755Z,13.80
2019-03-16T13:51:44.416Z,11.27
2019-03-16T13:54:12.508Z,10.10
2019-03-16T13:56:41.021Z,9.55
2019-03-16T13:59:08.753Z,8.78
2019-03-16T14:01:36.825Z,14.25
2019-03-16T14:04:04.737Z,10.15
2019-03-16T14:06:33.569Z,10.83
2019-03-16T14:09:02.256Z,9.33
2019-03-16T14:11:30.423Z,9.75
2019-03-16T14:13:58.408Z,8.25
2019-03-16T14:16:26.210Z,10.30
2019-03-16T14:18:54.434Z,10.08
2019-03-16T14:21:22.154Z,10.73
2019-03-16T14:23:49.887Z,10.80
2019-03-16T14:26:17.996Z,5.00
2019-03-16T14:28:45.755Z,8.00
2019-03-16T14:31:13.936Z,7.23
2019-03-16T14:33:41.710Z,8.05
2019-03-16T14:36:10.386Z,6.97
2019-03-16T14:38:38.468Z,5.70
2019-03-16T14:41:06.948Z,7.07
2019-03-16T14:43:34.760Z,5.90
2019-03-16T14:46:03.256Z,5.77
2019-03-16T14:51:15.691Z,5.30
2019-03-16T14:53:42.908Z,5.83
2019-03-16T14:56:10.012Z,4.67
2019-03-16T14:58:37.099Z,5.80
2019-03-16T15:01:05.037Z,5.10
2019-03-16T15:03:32.543Z,3.80
2019-03-16T15:06:00.037Z,5.50
2019-03-16T15:08:27.557Z,6.35
2019-03-16T15:10:55.348Z,4.37
2019-03-16T15:13:22.842Z,4.17
2019-03-16T15:15:50.110Z,3.15
2019-03-16T15:18:17.466Z,3.53
2019-03-16T15:20:44.540Z,3.55
2019-03-16T15:23:11.916Z,5.08
2019-03-16T15:25:38.982Z,2.70
2019-03-16T15:28:06.425Z,3.43
2019-03-16T15:30:33.624Z,4.03
2019-03-16T15:33:00.805Z,3.75
2019-03-16T15:35:28.183Z,3.90
2019-03-16T15:37:55.830Z,2.72
2019-03-16T15:40:23.697Z,4.45
2019-03-16T15:42:50.864Z,2.90
2019-03-16T15:45:18.111Z,3.20
2019-03-16T15:47:46.182Z,2.97
2019-03-16T15:50:13.229Z,3.67
2019-03-16T15:52:40.609Z,2.45
2019-03-16T15:55:08.048Z,3.40
2019-03-16T15:57:35.263Z,2.85
2019-03-16T16:00:02.762Z,2.35
2019-03-16T16:02:30.750Z,3.42
2019-03-16T16:04:59.095Z,3.50
2019-03-16T16:07:27.451Z,2.00
2019-03-16T16:09:55.458Z,2.10
2019-03-16T16:12:23.691Z,4.08
2019-03-16T16:14:51.745Z,3.17
2019-03-16T16:17:19.534Z,1.70
2019-03-16T16:19:48.058Z,1.63
2019-03-16T16:22:17.319Z,1.80
2019-03-16T16:24:45.239Z,1.80
2019-03-16T16:27:13.400Z,1.80
2019-03-16T16:29:41.448Z,2.40
2019-03-16T16:32:09.262Z,2.07
2019-03-16T16:34:37.652Z,1.70
2019-03-16T16:37:05.549Z,2.20
2019-03-16T16:39:34.081Z,1.73
2019-03-16T16:42:01.755Z,1.50
2019-03-16T16:44:29.930Z,1.52
2019-03-16T16:46:57.618Z,2.07
2019-03-16T16:49:25.339Z,2.70
2019-03-16T16:51:53.532Z,1.50
2019-03-16T16:54:21.246Z,1.85
2019-03-16T16:56:49.177Z,2.15
2019-03-16T16:59:16.861Z,1.67
2019-03-16T17:01:44.671Z,2.55
2019-03-16T17:04:12.487Z,2.40
2019-03-16T17:06:40.080Z,2.85
2019-03-16T17:09:08.346Z,1.97
2019-03-16T17:11:36.430Z,2.15
2019-03-16T17:14:04.109Z,1.90
2019-03-16T17:16:31.826Z,1.60
2019-03-16T17:19:00.638Z,1.80
2019-03-16T17:21:28.858Z,1.80
2019-03-16T17:23:56.905Z,2.22
2019-03-16T17:26:24.888Z,1.75
2019-03-16T17:28:52.680Z,1.85
2019-03-16T17:31:20.302Z,2.70
2019-03-16T17:33:48.724Z,1.67
2019-03-16T17:36:16.611Z,1.55
2019-03-16T17:38:44.680Z,1.60
2019-03-16T17:41:12.718Z,1.77
2019-03-16T17:43:40.529Z,2.13
2019-03-16T17:46:09.179Z,1.83
2019-03-16T17:48:38.282Z,1.75
2019-03-16T17:51:06.347Z,2.37
2019-03-16T17:53:34.258Z,2.05
2019-03-16T17:56:03.391Z,1.87
2019-03-16T17:58:31.152Z,2.23
2019-03-16T18:00:59.136Z,2.43
2019-03-16T18:03:27.353Z,2.43
2019-03-16T18:05:55.285Z,3.30
2019-03-16T18:08:23.804Z,4.70
2019-03-16T18:10:51.714Z,3.98
2019-03-16T18:13:20.390Z,4.30
2019-03-16T18:15:48.582Z,5.63
2019-03-16T18:18:16.291Z,4.20
2019-03-16T18:20:44.061Z,5.55
2019-03-16T18:23:12.380Z,7.85
2019-03-16T18:25:41.921Z,5.20
2019-03-16T18:28:09.709Z,4.50
2019-03-16T18:30:37.519Z,7.17
2019-03-16T18:33:05.378Z,10.13
2019-03-16T18:35:33.582Z,7.45
2019-03-16T18:38:01.474Z,12.50
2019-03-16T18:40:29.279Z,10.10
2019-03-16T18:42:58.367Z,10.08
2019-03-16T18:45:26.248Z,8.50
2019-03-16T18:47:53.943Z,6.27
2019-03-16T18:50:23.090Z,10.60
2019-03-16T18:52:50.911Z,7.92
2019-03-16T18:55:18.594Z,5.53
2019-03-16T18:57:46.515Z,5.85
2019-03-16T19:00:14.437Z,8.05
2019-03-16T19:02:42.192Z,6.47
2019-03-16T19:05:11.448Z,6.93
2019-03-16T19:07:39.569Z,8.33
2019-03-16T19:10:09.133Z,6.95
2019-03-16T19:12:37.149Z,5.17
2019-03-16T19:15:07.171Z,5.73
2019-03-16T19:17:35.488Z,4.87
2019-03-16T19:20:05.152Z,5.00
2019-03-16T19:22:33.172Z,4.90
2019-03-16T19:25:02.263Z,6.78
2019-03-16T19:27:30.169Z,6.70
2019-03-16T19:29:57.998Z,6.07
2019-03-16T19:32:33.748Z,7.50
2019-03-16T19:34:56.464Z,7.47
2019-03-16T19:37:25.402Z,5.33
2019-03-16T19:39:53.777Z,7.07
2019-03-16T19:42:21.679Z,8.45
2019-03-16T19:44:49.503Z,6.27
2019-03-16T19:47:17.753Z,8.20
2019-03-16T19:49:45.678Z,5.17
2019-03-16T19:52:13.140Z,6.00
2019-03-16T19:54:41.626Z,7.30
2019-03-16T19:57:16.034Z,7.50
2019-03-16T19:59:39.369Z,5.25
2019-03-16T20:02:07.104Z,7.43
2019-03-16T20:04:36.465Z,6.40
2019-03-16T20:07:04.715Z,5.40
2019-03-16T20:09:34.294Z,7.05
2019-03-16T20:12:02.168Z,7.77
2019-03-16T20:14:30.178Z,6.00
2019-03-16T20:16:59.661Z,8.33
2019-03-16T20:19:27.626Z,6.10
2019-03-16T20:21:55.530Z,7.90
2019-03-16T20:24:23.766Z,8.80
2019-03-16T20:26:52.334Z,11.00
2019-03-16T20:29:20.207Z,6.80
2019-03-16T20:31:47.956Z,10.00
2019-03-16T20:34:16.178Z,10.67
2019-03-16T20:36:43.954Z,9.95
2019-03-16T20:39:11.890Z,8.58
2019-03-16T20:41:41.247Z,11.03
2019-03-16T20:44:09.148Z,8.98
2019-03-16T20:46:37.740Z,7.63
2019-03-16T20:49:05.807Z,11.80
2019-03-16T20:51:33.649Z,12.65
2019-03-16T20:54:01.853Z,11.03
2019-03-16T20:56:30.433Z,9.70
2019-03-16T20:58:59.140Z,12.45
2019-03-16T21:01:27.275Z,13.60
2019-03-16T21:03:56.103Z,8.90
2019-03-16T21:06:25.137Z,8.73
2019-03-16T21:09:02.625Z,11.08
2019-03-16T21:11:22.981Z,10.58
2019-03-16T21:13:51.834Z,11.88
2019-03-16T21:16:20.211Z,7.42
2019-03-16T21:18:49.234Z,19.98
2019-03-16T21:21:17.241Z,11.10
2019-03-16T21:23:46.399Z,16.87
2019-03-16T21:26:14.747Z,11.37
2019-03-16T21:28:44.707Z,13.80
2019-03-16T21:31:12.691Z,12.30
2019-03-16T21:33:40.424Z,7.30
2019-03-16T21:36:08.596Z,18.60
2019-03-16T21:38:38.032Z,11.60
2019-03-16T21:41:05.925Z,7.80
2019-03-16T21:43:34.268Z,9.70
2019-03-16T21:46:02.111Z,7.70
2019-03-16T21:48:30.225Z,8.10
2019-03-16T21:50:58.309Z,13.03
2019-03-16T21:53:27.062Z,6.90
2019-03-16T21:55:54.817Z,9.30
2019-03-16T21:58:23.645Z,10.27
2019-03-16T22:00:51.710Z,6.65
2019-03-16T22:03:19.834Z,8.55
2019-03-16T22:05:48.162Z,7.40
2019-03-16T22:08:16.612Z,6.40
2019-03-16T22:10:44.556Z,10.10
2019-03-16T22:13:12.807Z,11.25
2019-03-16T22:15:40.950Z,7.25
2019-03-16T22:18:09.499Z,6.55
2019-03-16T22:20:37.248Z,7.93
2019-03-16T22:23:06.501Z,6.30
2019-03-16T22:25:34.940Z,6.95
2019-03-16T22:28:03.420Z,5.50
2019-03-16T22:30:32.108Z,4.22
2019-03-16T22:33:00.255Z,4.60
2019-03-16T22:35:28.756Z,6.00
2019-03-16T22:37:56.686Z,4.93
2019-03-16T22:40:24.689Z,5.50
2019-03-16T22:42:52.761Z,6.80
2019-03-16T22:45:20.597Z,5.25
2019-03-16T22:47:48.577Z,4.97
2019-03-16T22:50:16.844Z,5.50
2019-03-16T22:52:45.728Z,6.37
2019-03-16T22:55:16.125Z,5.47
2019-03-16T22:57:44.244Z,2.85
2019-03-16T23:00:12.510Z,5.40
2019-03-16T23:02:40.754Z,8.03
2019-03-16T23:05:09.894Z,7.10
2019-03-16T23:07:38.224Z,3.67
2019-03-16T23:10:08.291Z,7.60
2019-03-16T23:12:36.615Z,3.67
2019-03-16T23:15:05.286Z,3.10
2019-03-16T23:17:33.315Z,6.70
2019-03-16T23:20:01.299Z,3.23
2019-03-16T23:22:29.576Z,5.33
2019-03-16T23:24:57.235Z,6.07
2019-03-16T23:27:25.489Z,4.20
2019-03-16T23:29:54.473Z,7.97
2019-03-16T23:32:22.359Z,4.10
2019-03-16T23:34:50.340Z,7.20
2019-03-16T23:37:18.170Z,8.90
2019-03-16T23:39:45.911Z,3.70
2019-03-16T23:42:15.076Z,2.80
2019-03-16T23:44:46.478Z,2.93
2019-03-16T23:47:15.646Z,4.55
2019-03-16T23:49:45.397Z,3.75
2019-03-16T23:52:13.204Z,4.78
2019-03-16T23:54:41.081Z,3.30
2019-03-16T23:57:08.811Z,5.93
2019-03-16T23:59:36.573Z,3.75
